Hovedside
METAR-TAF:

METAR-TAF

Lufthavner :

Växjö, Sverige

Växjö lufthavn

breddegrad: 56-51N, lengdegrad: 014-50E, høyde over havet: 199 m

Gjeldene værobservasjon

Denne rapporten ble laget for 21 minutter siden, klokken 07:20 UTC
Vind 3 kt fra skiftende retning
Temperatur 4°C
Luftfuktighet 81%
Trykk 1025 hPa
Sikt 10 km eller mer
Brutte skyer i en høyde av 3000 ft

METAR: ESMX 240720Z VRB03KT 9999 BKN030 04/01 Q1025

Tid: 09:41 (07:41 UTC)

Varsel

Denne rapporten ble laget for 2 timer og 11 minutter siden, klokken 05:30 UTC
Varsel gyldig fra 24. klokken 06 UTC til 24. klokken 15 UTC
Vind 7 kt fra Øst-sørøst
Sikt 10 km eller mer
Brutte skyer i en høyde av 3000 ft
Blir
fra 24. klokken 13 UTC til 24. klokken 15 UTC
Brutte skyer i en høyde av 1000 ft

TAF: ESMX 240530Z 2406/2415 11007KT 9999 BKN030 BECMG 2413/2415 BKN010

Værobservasjoner og værvarsel for over 4000 flyplasser (METAR- og TAF-rapporter).

Tilgjengelige stasjoner er representert av de røde og gule prikkene på kartet.

Hold musepekeren over prikken for å se navnet på stasjonen.

Klikk så for å se værobservasjoner og -varsler.

For å forandre kartet kan du klikke på den grønne knappen med svart kryss for å zoome inn, på den grønne knappen med strek for å zoome ut, eller på de grønne pilene for å se tilstøtende kart.


METAR-TAF: